createdAt,value
2019-05-18T00:01:18.776Z,11.58
2019-05-18T00:03:47.264Z,11.56
2019-05-18T00:06:15.648Z,11.56
2019-05-18T00:08:44.131Z,11.54
2019-05-18T00:11:14.029Z,11.50
2019-05-18T00:13:42.430Z,11.44
2019-05-18T00:16:11.919Z,11.42
2019-05-18T00:18:40.399Z,11.35
2019-05-18T00:21:08.813Z,11.29
2019-05-18T00:23:38.697Z,11.24
2019-05-18T00:26:07.100Z,11.19
2019-05-18T00:28:35.526Z,11.13
2019-05-18T00:31:04.324Z,11.11
2019-05-18T00:33:34.418Z,10.91
2019-05-18T00:36:02.797Z,11.05
2019-05-18T00:38:31.362Z,11.05
2019-05-18T00:40:59.765Z,11.05
2019-05-18T00:43:29.624Z,11.06
2019-05-18T00:45:58.017Z,11.04
2019-05-18T00:48:26.387Z,11.02
2019-05-18T00:50:54.898Z,11.01
2019-05-18T00:53:23.413Z,11.00
2019-05-18T00:55:51.865Z,10.98
2019-05-18T00:58:20.240Z,10.97
2019-05-18T01:00:48.639Z,10.98
2019-05-18T01:03:17.052Z,11.05
2019-05-18T01:05:45.492Z,11.04
2019-05-18T01:08:13.898Z,11.01
2019-05-18T01:10:43.799Z,10.95
2019-05-18T01:13:12.836Z,10.90
2019-05-18T01:15:41.243Z,10.85
2019-05-18T01:18:09.643Z,10.80
2019-05-18T01:20:38.503Z,10.78
2019-05-18T01:23:08.643Z,10.75
2019-05-18T01:25:37.006Z,10.79
2019-05-18T01:28:05.529Z,10.79
2019-05-18T01:30:33.887Z,10.69
2019-05-18T01:33:02.274Z,10.75
2019-05-18T01:35:30.885Z,10.74
2019-05-18T01:37:59.279Z,10.75
2019-05-18T01:40:27.654Z,10.76
2019-05-18T01:42:56.072Z,10.72
2019-05-18T01:45:24.799Z,10.67
2019-05-18T01:47:53.270Z,10.64
2019-05-18T01:50:22.126Z,10.58
2019-05-18T01:52:52.598Z,10.53
2019-05-18T01:55:21.018Z,10.47
2019-05-18T01:57:49.661Z,10.41
2019-05-18T02:00:19.167Z,10.35
2019-05-18T02:02:47.593Z,10.28
2019-05-18T02:05:16.874Z,10.23
2019-05-18T02:07:45.278Z,10.17
2019-05-18T02:10:13.875Z,10.14
2019-05-18T02:12:42.294Z,10.16
2019-05-18T02:15:11.832Z,10.12
2019-05-18T02:17:40.230Z,10.07
2019-05-18T02:20:09.839Z,10.02
2019-05-18T02:22:38.353Z,9.98
2019-05-18T02:25:07.463Z,9.95
2019-05-18T02:27:37.713Z,9.92
2019-05-18T02:30:08.222Z,9.88
2019-05-18T02:32:36.609Z,9.83
2019-05-18T02:35:06.721Z,9.78
2019-05-18T02:37:36.667Z,9.74
2019-05-18T02:40:06.750Z,9.70
2019-05-18T02:42:35.341Z,9.67
2019-05-18T02:45:07.129Z,9.64
2019-05-18T02:47:35.606Z,9.46
2019-05-18T02:50:08.991Z,9.63
2019-05-18T02:52:37.418Z,9.60
2019-05-18T02:55:07.140Z,9.59
2019-05-18T02:57:37.059Z,9.58
2019-05-18T03:00:14.283Z,9.59
2019-05-18T03:02:42.281Z,9.60
2019-05-18T03:05:12.222Z,9.60
2019-05-18T03:07:42.134Z,9.64
2019-05-18T03:10:11.573Z,9.60
2019-05-18T03:12:39.934Z,9.63
2019-05-18T03:15:08.491Z,9.65
2019-05-18T03:17:36.917Z,9.64
2019-05-18T03:20:06.939Z,9.65
2019-05-18T03:22:35.297Z,9.67
2019-05-18T03:25:10.182Z,9.72
2019-05-18T03:27:38.569Z,9.75
2019-05-18T03:30:11.849Z,9.80
2019-05-18T03:32:40.312Z,9.81
2019-05-18T03:35:08.879Z,9.83
2019-05-18T03:37:37.254Z,9.86
2019-05-18T03:40:08.560Z,9.89
2019-05-18T03:42:37.010Z,9.93
2019-05-18T03:45:07.242Z,9.99
2019-05-18T03:47:35.613Z,10.07
2019-05-18T03:50:07.398Z,10.13
2019-05-18T03:52:35.785Z,10.04
2019-05-18T03:55:05.073Z,10.29
2019-05-18T03:57:33.423Z,10.20
2019-05-18T04:00:01.806Z,10.45
2019-05-18T04:02:33.369Z,10.51
2019-05-18T04:05:01.739Z,10.56
2019-05-18T04:07:31.636Z,10.60
2019-05-18T04:10:00.292Z,10.66
2019-05-18T04:12:28.730Z,10.70
2019-05-18T04:14:57.322Z,10.76
2019-05-18T04:17:25.754Z,10.80
2019-05-18T04:19:54.280Z,10.82
2019-05-18T04:22:22.648Z,10.85
2019-05-18T04:24:51.033Z,10.85
2019-05-18T04:27:19.428Z,10.87
2019-05-18T04:29:47.796Z,10.90
2019-05-18T04:32:16.175Z,10.93
2019-05-18T04:34:44.566Z,10.95
2019-05-18T04:37:12.955Z,10.97
2019-05-18T04:39:41.307Z,11.00
2019-05-18T04:42:09.687Z,11.08
2019-05-18T04:44:38.170Z,11.15
2019-05-18T04:47:06.589Z,11.27
2019-05-18T04:49:34.936Z,11.33
2019-05-18T04:52:04.278Z,11.41
2019-05-18T04:54:33.101Z,11.47
2019-05-18T04:57:01.503Z,11.55
2019-05-18T04:59:29.873Z,11.64
2019-05-18T05:01:58.271Z,11.69
2019-05-18T05:04:26.905Z,11.75
2019-05-18T05:06:55.452Z,11.84
2019-05-18T05:09:23.844Z,11.90
2019-05-18T05:11:52.234Z,11.96
2019-05-18T05:14:20.769Z,12.03
2019-05-18T05:16:49.216Z,12.11
2019-05-18T05:19:17.629Z,12.19
2019-05-18T05:21:46.016Z,12.28
2019-05-18T05:24:14.418Z,12.36
2019-05-18T05:26:42.890Z,12.43
2019-05-18T05:29:11.338Z,12.45
2019-05-18T05:31:39.924Z,12.49
2019-05-18T05:34:08.288Z,12.51
2019-05-18T05:36:38.363Z,12.57
2019-05-18T05:39:06.962Z,12.62
2019-05-18T05:41:36.857Z,12.69
2019-05-18T05:44:05.368Z,12.76
2019-05-18T05:46:37.240Z,12.84
2019-05-18T05:49:05.921Z,12.95
2019-05-18T05:51:34.283Z,12.94
2019-05-18T05:54:04.161Z,13.15
2019-05-18T05:56:32.599Z,13.22
2019-05-18T05:59:01.044Z,13.31
2019-05-18T06:01:29.419Z,13.37
2019-05-18T06:03:59.347Z,13.43
2019-05-18T06:06:27.883Z,13.49
2019-05-18T06:08:56.279Z,13.55
2019-05-18T06:11:24.686Z,13.59
2019-05-18T06:13:53.073Z,13.61
2019-05-18T06:16:24.482Z,13.66
2019-05-18T06:18:53.238Z,13.70
2019-05-18T06:21:21.662Z,13.71
2019-05-18T06:23:50.038Z,13.67
2019-05-18T06:26:18.419Z,13.65
2019-05-18T06:28:46.805Z,13.62
2019-05-18T06:31:15.207Z,13.56
2019-05-18T06:33:43.574Z,13.52
2019-05-18T06:36:12.059Z,13.54
2019-05-18T06:38:40.481Z,13.54
2019-05-18T06:41:10.446Z,13.58
2019-05-18T06:43:40.443Z,13.66
2019-05-18T06:46:11.703Z,13.75
2019-05-18T06:48:41.576Z,13.81
2019-05-18T06:51:10.312Z,13.87
2019-05-18T06:53:38.692Z,13.97
2019-05-18T06:56:07.403Z,14.07
2019-05-18T06:58:36.296Z,14.16
2019-05-18T07:01:06.184Z,14.21
2019-05-18T07:03:34.587Z,14.22
2019-05-18T07:06:02.946Z,14.31
2019-05-18T07:08:31.346Z,14.38
2019-05-18T07:10:59.919Z,14.42
2019-05-18T07:13:29.097Z,14.69
2019-05-18T07:15:58.973Z,14.82
2019-05-18T07:18:27.338Z,14.99
2019-05-18T07:20:55.724Z,15.02
2019-05-18T07:23:25.312Z,15.43
2019-05-18T07:25:53.730Z,15.88
2019-05-18T07:28:23.638Z,15.88
2019-05-18T07:30:52.012Z,16.24
2019-05-18T07:33:20.454Z,16.67
2019-05-18T07:35:48.951Z,16.81
2019-05-18T07:38:18.826Z,16.92
2019-05-18T07:40:48.809Z,17.04
2019-05-18T07:43:17.282Z,17.21
2019-05-18T07:45:45.648Z,17.46
2019-05-18T07:48:14.025Z,17.67
2019-05-18T07:50:42.466Z,17.77
2019-05-18T07:53:10.818Z,17.79
2019-05-18T07:55:40.052Z,17.68
2019-05-18T07:58:08.788Z,17.68
2019-05-18T08:00:37.166Z,17.59
2019-05-18T08:03:05.536Z,17.57
2019-05-18T08:05:39.826Z,17.71
2019-05-18T08:08:08.202Z,17.68
2019-05-18T08:10:38.298Z,17.68
2019-05-18T08:13:07.446Z,17.71
2019-05-18T08:15:37.155Z,17.73
2019-05-18T08:18:05.803Z,17.90
2019-05-18T08:20:34.254Z,18.23
2019-05-18T08:23:02.642Z,18.97
2019-05-18T08:25:31.121Z,19.53
2019-05-18T08:27:59.514Z,20.06
2019-05-18T08:30:27.907Z,20.19
2019-05-18T08:32:56.321Z,20.13
2019-05-18T08:35:27.153Z,20.04
2019-05-18T08:37:54.965Z,20.09
2019-05-18T08:40:23.366Z,20.40
2019-05-18T08:42:51.761Z,20.75
2019-05-18T08:45:21.178Z,21.17
2019-05-18T08:47:49.609Z,21.21
2019-05-18T08:50:20.496Z,21.26
2019-05-18T08:52:48.444Z,21.42
2019-05-18T08:55:16.895Z,21.38
2019-05-18T08:57:45.321Z,21.56
2019-05-18T09:00:15.361Z,21.49
2019-05-18T09:02:43.857Z,21.50
2019-05-18T09:05:12.463Z,21.83
2019-05-18T09:07:40.985Z,21.94
2019-05-18T09:10:09.604Z,21.87
2019-05-18T09:12:38.078Z,21.95
2019-05-18T09:15:08.103Z,21.95
2019-05-18T09:17:36.496Z,21.95
2019-05-18T09:20:08.258Z,22.24
2019-05-18T09:22:36.706Z,22.05
2019-05-18T09:25:06.747Z,21.82
2019-05-18T09:27:36.229Z,21.55
2019-05-18T09:30:09.500Z,21.66
2019-05-18T09:32:38.502Z,21.94
2019-05-18T09:35:07.948Z,21.88
2019-05-18T09:37:36.427Z,21.91
2019-05-18T09:40:07.587Z,22.04
2019-05-18T09:42:36.233Z,22.59
2019-05-18T09:45:08.236Z,22.94
2019-05-18T09:47:39.550Z,23.20
2019-05-18T09:50:09.611Z,23.27
2019-05-18T09:52:46.273Z,23.08
2019-05-18T09:55:09.405Z,23.00
2019-05-18T09:57:37.807Z,22.77
2019-05-18T10:00:11.505Z,22.70
2019-05-18T10:02:40.903Z,22.75
2019-05-18T10:05:10.947Z,22.99
2019-05-18T10:07:39.375Z,23.10
2019-05-18T10:10:08.821Z,23.08
2019-05-18T10:12:37.408Z,23.04
2019-05-18T10:15:07.549Z,22.84
2019-05-18T10:17:35.936Z,22.74
2019-05-18T10:20:10.285Z,22.77
2019-05-18T10:22:53.395Z,22.90
2019-05-18T10:25:09.719Z,23.20
2019-05-18T10:27:40.448Z,23.33
2019-05-18T10:30:10.393Z,23.35
2019-05-18T10:32:38.771Z,23.19
2019-05-18T10:35:07.720Z,23.07
2019-05-18T10:37:36.088Z,22.96
2019-05-18T10:40:09.531Z,22.89
2019-05-18T10:42:37.905Z,22.74
2019-05-18T10:45:08.044Z,22.65
2019-05-18T10:47:38.301Z,22.94
2019-05-18T10:50:07.932Z,23.23
2019-05-18T10:52:36.330Z,23.63
2019-05-18T10:55:07.098Z,23.70
2019-05-18T10:57:35.568Z,23.60
2019-05-18T11:00:09.525Z,23.62
2019-05-18T11:02:37.907Z,23.73
2019-05-18T11:05:07.239Z,23.98
2019-05-18T11:07:37.146Z,24.24
2019-05-18T11:10:10.519Z,24.13
2019-05-18T11:12:38.899Z,24.08
2019-05-18T11:15:09.144Z,24.39
2019-05-18T11:17:40.369Z,24.33
2019-05-18T11:20:10.498Z,24.15
2019-05-18T11:22:38.972Z,24.13
2019-05-18T11:25:19.378Z,24.04
2019-05-18T11:27:47.758Z,24.19
2019-05-18T11:30:16.826Z,24.13
2019-05-18T11:32:45.379Z,24.30
2019-05-18T11:35:17.315Z,24.58
2019-05-18T11:37:45.742Z,24.64
2019-05-18T11:40:14.481Z,24.93
2019-05-18T11:42:44.632Z,25.27
2019-05-18T11:45:22.294Z,25.44
2019-05-18T11:47:53.216Z,25.75
2019-05-18T11:50:21.856Z,26.01
2019-05-18T11:52:50.205Z,25.91
2019-05-18T11:55:20.150Z,25.95
2019-05-18T11:57:48.548Z,25.84
2019-05-18T12:00:17.695Z,25.65
2019-05-18T12:02:46.130Z,25.48
2019-05-18T12:05:17.293Z,25.59
2019-05-18T12:07:47.146Z,25.61
2019-05-18T12:10:18.501Z,25.85
2019-05-18T12:12:46.941Z,25.97
2019-05-18T12:15:17.006Z,25.94
2019-05-18T12:17:45.513Z,25.80
2019-05-18T12:20:15.250Z,25.84
2019-05-18T12:22:43.623Z,26.11
2019-05-18T12:25:13.600Z,26.50
2019-05-18T12:27:42.092Z,26.54
2019-05-18T12:30:11.497Z,26.55
2019-05-18T12:32:41.379Z,26.31
2019-05-18T12:35:14.698Z,26.40
2019-05-18T12:37:44.961Z,26.47
2019-05-18T12:40:16.380Z,26.33
2019-05-18T12:42:46.268Z,26.12
2019-05-18T12:45:15.418Z,26.19
2019-05-18T12:47:43.841Z,26.33
2019-05-18T12:50:14.142Z,26.20
2019-05-18T12:52:42.742Z,26.09
2019-05-18T12:55:11.714Z,25.98
2019-05-18T12:57:40.274Z,25.68
2019-05-18T13:00:14.316Z,25.39
2019-05-18T13:02:44.294Z,25.55
2019-05-18T13:05:13.079Z,25.43
2019-05-18T13:07:41.475Z,25.21
2019-05-18T13:10:11.450Z,24.80
2019-05-18T13:12:39.852Z,24.29
2019-05-18T13:15:10.970Z,24.15
2019-05-18T13:17:39.432Z,23.88
2019-05-18T13:20:10.423Z,23.63
2019-05-18T13:22:39.036Z,23.52
2019-05-18T13:25:08.475Z,23.59
2019-05-18T13:27:39.958Z,23.44
2019-05-18T13:30:10.453Z,23.44
2019-05-18T13:32:39.419Z,23.31
2019-05-18T13:35:07.958Z,23.23
2019-05-18T13:37:36.352Z,23.05
2019-05-18T13:40:07.068Z,22.89
2019-05-18T13:42:35.487Z,22.77
2019-05-18T13:45:07.362Z,22.67
2019-05-18T13:47:35.732Z,22.35
2019-05-18T13:50:04.747Z,22.16
2019-05-18T13:52:34.991Z,22.08
2019-05-18T13:55:11.302Z,21.98
2019-05-18T13:57:39.692Z,21.88
2019-05-18T14:00:09.288Z,21.91
2019-05-18T14:02:37.681Z,21.86
2019-05-18T14:05:07.466Z,21.90
2019-05-18T14:07:35.920Z,21.95
2019-05-18T14:10:06.739Z,22.02
2019-05-18T14:12:35.113Z,22.06
2019-05-18T14:15:08.491Z,22.17
2019-05-18T14:17:38.525Z,22.14
2019-05-18T14:20:07.583Z,22.21
2019-05-18T14:22:35.951Z,22.27
2019-05-18T14:25:18.870Z,22.29
2019-05-18T14:27:37.537Z,22.32
2019-05-18T14:30:07.482Z,22.47
2019-05-18T14:32:35.903Z,22.64
2019-05-18T14:35:07.613Z,22.87
2019-05-18T14:37:35.989Z,23.01
2019-05-18T14:40:09.594Z,23.18
2019-05-18T14:42:38.407Z,23.41
2019-05-18T14:45:08.237Z,23.58
2019-05-18T14:47:37.185Z,23.76
2019-05-18T14:50:07.512Z,23.95
2019-05-18T14:52:36.337Z,24.06
2019-05-18T14:55:07.795Z,24.17
2019-05-18T14:57:36.347Z,23.99
2019-05-18T15:00:07.093Z,24.02
2019-05-18T15:02:35.451Z,24.11
2019-05-18T15:05:07.290Z,24.12
2019-05-18T15:07:35.718Z,23.71
2019-05-18T15:10:06.890Z,23.28
2019-05-18T15:12:35.541Z,22.83
2019-05-18T15:15:09.062Z,22.46
2019-05-18T15:17:37.607Z,22.27
2019-05-18T15:20:07.440Z,22.06
2019-05-18T15:22:35.893Z,22.03
2019-05-18T15:25:05.306Z,21.87
2019-05-18T15:27:33.715Z,21.77
2019-05-18T15:30:02.293Z,21.59
2019-05-18T15:32:33.760Z,21.45
2019-05-18T15:35:02.190Z,21.17
2019-05-18T15:37:31.265Z,21.04
2019-05-18T15:39:59.803Z,20.95
2019-05-18T15:42:28.670Z,20.87
2019-05-18T15:44:57.101Z,20.81
2019-05-18T15:47:26.783Z,20.79
2019-05-18T15:49:55.118Z,20.77
2019-05-18T15:52:23.728Z,20.78
2019-05-18T15:54:52.096Z,20.74
2019-05-18T15:57:20.522Z,20.60
2019-05-18T15:59:48.928Z,20.49
2019-05-18T16:02:17.309Z,20.49
2019-05-18T16:04:45.775Z,20.26
2019-05-18T16:07:14.168Z,20.08
2019-05-18T16:09:42.635Z,19.90
2019-05-18T16:12:11.046Z,19.79
2019-05-18T16:14:39.680Z,19.72
2019-05-18T16:17:08.160Z,19.50
2019-05-18T16:19:36.600Z,19.20
2019-05-18T16:22:06.854Z,18.95
2019-05-18T16:24:35.360Z,18.94
2019-05-18T16:27:04.644Z,18.87
2019-05-18T16:29:33.090Z,18.83
2019-05-18T16:32:01.499Z,18.81
2019-05-18T16:34:29.888Z,18.78
2019-05-18T16:37:00.710Z,18.56
2019-05-18T16:39:28.452Z,18.67
2019-05-18T16:41:56.850Z,18.60
2019-05-18T16:44:25.328Z,18.54
2019-05-18T16:46:55.027Z,18.48
2019-05-18T16:49:23.450Z,18.42
2019-05-18T16:51:51.938Z,18.38
2019-05-18T16:54:20.623Z,18.36
2019-05-18T16:56:49.026Z,18.34
2019-05-18T16:59:17.795Z,18.34
2019-05-18T17:01:46.160Z,18.33
2019-05-18T17:04:14.889Z,18.28
2019-05-18T17:06:43.418Z,18.26
2019-05-18T17:09:15.969Z,18.25
2019-05-18T17:11:47.876Z,18.16
2019-05-18T17:14:14.681Z,18.11
2019-05-18T17:16:43.152Z,17.92
2019-05-18T17:19:11.649Z,17.70
2019-05-18T17:21:40.217Z,17.56
2019-05-18T17:24:08.657Z,17.44
2019-05-18T17:26:51.507Z,17.36
2019-05-18T17:29:07.245Z,17.27
2019-05-18T17:31:35.620Z,17.14
2019-05-18T17:34:06.105Z,17.14
2019-05-18T17:36:34.501Z,17.09
2019-05-18T17:39:03.014Z,17.06
2019-05-18T17:41:33.039Z,17.03
2019-05-18T17:44:01.451Z,17.00
2019-05-18T17:46:29.825Z,16.95
2019-05-18T17:49:01.038Z,16.87
2019-05-18T17:51:31.033Z,16.82
2019-05-18T17:53:59.487Z,16.73
2019-05-18T17:56:30.384Z,16.66
2019-05-18T17:58:58.190Z,16.61
2019-05-18T18:01:26.561Z,16.50
2019-05-18T18:03:55.066Z,16.36
2019-05-18T18:06:25.099Z,16.30
2019-05-18T18:08:53.475Z,16.18
2019-05-18T18:11:22.053Z,16.08
2019-05-18T18:13:50.513Z,15.96
2019-05-18T18:16:18.909Z,15.87
2019-05-18T18:18:47.318Z,15.80
2019-05-18T18:21:16.721Z,15.74
2019-05-18T18:23:52.806Z,15.69
2019-05-18T18:26:15.337Z,15.61
2019-05-18T18:28:43.720Z,15.53
2019-05-18T18:31:12.248Z,15.44
2019-05-18T18:33:40.716Z,15.33
2019-05-18T18:36:09.437Z,15.15
2019-05-18T18:38:38.149Z,15.23
2019-05-18T18:41:06.813Z,15.25
2019-05-18T18:43:35.186Z,15.21
2019-05-18T18:46:06.453Z,15.17
2019-05-18T18:48:34.956Z,14.95
2019-05-18T18:51:06.356Z,15.10
2019-05-18T18:53:34.729Z,14.85
2019-05-18T18:56:03.108Z,15.05
2019-05-18T18:58:31.629Z,14.93
2019-05-18T19:01:00.494Z,14.91
2019-05-18T19:03:28.962Z,14.93
2019-05-18T19:05:57.386Z,14.86
2019-05-18T19:08:25.988Z,14.82
2019-05-18T19:10:54.378Z,14.76
2019-05-18T19:13:22.932Z,14.58
2019-05-18T19:15:51.403Z,14.66
2019-05-18T19:18:19.838Z,14.61
2019-05-18T19:20:48.283Z,14.59
2019-05-18T19:23:16.957Z,14.59
2019-05-18T19:25:45.324Z,14.56
2019-05-18T19:28:13.724Z,14.55
2019-05-18T19:30:42.112Z,14.52
2019-05-18T19:33:10.546Z,14.50
2019-05-18T19:35:40.659Z,14.48
2019-05-18T19:38:09.076Z,14.45
2019-05-18T19:40:37.586Z,14.44
2019-05-18T19:43:06.181Z,14.40
2019-05-18T19:45:34.584Z,14.37
2019-05-18T19:48:03.011Z,14.35
2019-05-18T19:50:31.541Z,14.29
2019-05-18T19:53:02.920Z,14.24
2019-05-18T19:55:31.273Z,14.19
2019-05-18T19:58:08.543Z,14.15
2019-05-18T20:00:31.501Z,14.12
2019-05-18T20:03:01.453Z,14.09
2019-05-18T20:05:29.834Z,14.07
2019-05-18T20:07:58.276Z,14.13
2019-05-18T20:10:27.247Z,14.21
2019-05-18T20:12:57.291Z,14.28
2019-05-18T20:15:25.623Z,14.35
2019-05-18T20:17:54.043Z,14.37
2019-05-18T20:20:22.560Z,14.36
2019-05-18T20:22:50.995Z,14.19
2019-05-18T20:25:19.367Z,14.28
2019-05-18T20:27:47.755Z,14.27
2019-05-18T20:30:16.318Z,14.30
2019-05-18T20:32:44.803Z,14.34
2019-05-18T20:35:14.048Z,14.31
2019-05-18T20:37:42.423Z,14.27
2019-05-18T20:40:11.056Z,14.25
2019-05-18T20:42:39.439Z,14.27
2019-05-18T20:45:10.893Z,14.28
2019-05-18T20:47:39.555Z,14.29
2019-05-18T20:50:08.950Z,14.28
2019-05-18T20:52:37.657Z,14.31
2019-05-18T20:55:06.242Z,14.28
2019-05-18T20:57:34.624Z,14.25
2019-05-18T21:00:03.080Z,14.19
2019-05-18T21:02:31.514Z,14.18
2019-05-18T21:04:59.957Z,14.14
2019-05-18T21:07:28.499Z,14.16
2019-05-18T21:09:56.956Z,14.17
2019-05-18T21:12:25.337Z,14.16
2019-05-18T21:14:54.252Z,14.13
2019-05-18T21:17:22.713Z,14.12
2019-05-18T21:19:52.601Z,14.08
2019-05-18T21:22:21.010Z,14.06
2019-05-18T21:24:49.461Z,14.05
2019-05-18T21:27:17.943Z,14.03
2019-05-18T21:29:47.900Z,14.02
2019-05-18T21:32:19.262Z,13.97
2019-05-18T21:34:47.683Z,13.97
2019-05-18T21:37:16.170Z,13.94
2019-05-18T21:39:44.556Z,13.95
2019-05-18T21:42:14.523Z,13.95
2019-05-18T21:44:42.984Z,13.97
2019-05-18T21:47:11.383Z,14.00
2019-05-18T21:49:39.803Z,14.02
2019-05-18T21:52:08.289Z,14.03
2019-05-18T21:54:38.201Z,14.08
2019-05-18T21:57:06.622Z,14.12
2019-05-18T21:59:36.688Z,14.12
2019-05-18T22:02:05.345Z,14.12
2019-05-18T22:04:36.873Z,14.07
2019-05-18T22:07:05.257Z,14.03
2019-05-18T22:09:33.737Z,14.03
2019-05-18T22:12:02.134Z,13.98
2019-05-18T22:14:30.521Z,13.92
2019-05-18T22:17:01.970Z,13.85
2019-05-18T22:19:32.199Z,13.84
2019-05-18T22:22:00.579Z,13.80
2019-05-18T22:24:28.960Z,13.77
2019-05-18T22:26:57.914Z,13.77
2019-05-18T22:29:26.460Z,13.75
2019-05-18T22:31:57.532Z,13.73
2019-05-18T22:34:25.937Z,13.72
2019-05-18T22:36:54.422Z,13.70
2019-05-18T22:39:26.659Z,13.68
2019-05-18T22:41:54.637Z,13.68
2019-05-18T22:44:23.075Z,13.65
2019-05-18T22:46:51.437Z,13.65
2019-05-18T22:49:19.820Z,13.64
2019-05-18T22:51:48.240Z,13.59
2019-05-18T22:54:16.913Z,13.57
2019-05-18T22:56:45.274Z,13.56
2019-05-18T22:59:13.761Z,13.54
2019-05-18T23:01:42.198Z,13.53
2019-05-18T23:04:10.851Z,13.52
2019-05-18T23:06:39.282Z,13.53
2019-05-18T23:09:07.860Z,13.52
2019-05-18T23:11:36.301Z,13.48
2019-05-18T23:14:04.783Z,13.46
2019-05-18T23:16:33.155Z,13.44
2019-05-18T23:19:01.556Z,13.40
2019-05-18T23:21:29.930Z,13.37
2019-05-18T23:23:59.284Z,13.32
2019-05-18T23:26:27.807Z,13.28
2019-05-18T23:28:56.289Z,13.23
2019-05-18T23:31:26.171Z,13.21
2019-05-18T23:33:54.561Z,13.22
2019-05-18T23:36:22.941Z,13.20
2019-05-18T23:38:51.339Z,13.20
2019-05-18T23:41:19.702Z,13.16
2019-05-18T23:43:48.372Z,13.12
2019-05-18T23:46:18.280Z,13.10
2019-05-18T23:48:48.186Z,13.04
2019-05-18T23:51:16.624Z,12.96
2019-05-18T23:53:44.996Z,12.94
2019-05-18T23:56:13.390Z,12.91
2019-05-18T23:58:41.793Z,12.88
